Time;durP1;ratioP1;P1;durP2;ratioP2;P2;SDS_P1;SDS_P2;PMS_P1;PMS_P2;Temp;Humidity;BMP_temperature;BMP_pressure;BME280_temperature;BME280_humidity;BME280_pressure;Samples;Min_cycle;Max_cycle;Signal;HPM_P1;HPM_P2
2021/12/07 00:02:06;;;;;;;26.10;17.85;;;77.30;2227.20;;;;;;5096221;28;20020;-88
2021/12/07 00:04:33;;;;;;;22.88;17.08;;;77.40;2227.20;;;;;;5096030;28;20047;-86
2021/12/07 00:07:00;;;;;;;15.80;11.77;;;77.40;2227.20;;;;;;5096220;28;20069;-88
2021/12/07 00:09:26;;;;;;;19.67;14.02;;;77.40;2227.20;;;;;;5096041;28;20027;-81
2021/12/07 00:11:52;;;;;;;19.85;12.15;;;77.30;2227.20;;;;;;5095346;28;20042;-84
2021/12/07 00:14:24;;;;;;;17.63;11.65;;;77.30;2227.20;;;;;;5096161;28;20444;-90
2021/12/07 00:16:53;;;;;;;15.65;10.45;;;77.40;2227.20;;;;;;5096093;28;20059;-90
2021/12/07 00:19:19;;;;;;;20.13;14.10;;;77.40;2227.20;;;;;;5096045;28;20028;-91
2021/12/07 00:21:46;;;;;;;29.63;22.13;;;77.50;2227.20;;;;;;5096335;28;20055;-90
2021/12/07 00:24:13;;;;;;;33.15;24.30;;;77.30;2227.20;;;;;;5096256;28;20016;-91
2021/12/07 00:26:41;;;;;;;46.63;31.50;;;77.30;2227.20;;;;;;5096078;28;20504;-90
2021/12/07 00:29:08;;;;;;;39.22;25.90;;;77.40;2227.20;;;;;;5096099;28;20039;-89
2021/12/07 00:31:42;;;;;;;56.88;33.60;;;77.60;1843.20;;;;;;5095983;28;20024;-90
2021/12/07 00:36:37;;;;;;;39.15;24.40;;;77.70;2227.20;;;;;;5096859;28;20581;-90
2021/12/07 00:39:08;;;;;;;27.27;17.02;;;77.70;2227.20;;;;;;5095185;28;20387;-90
2021/12/07 00:41:34;;;;;;;24.25;13.90;;;77.70;2227.20;;;;;;5095699;28;20020;-89
2021/12/07 00:44:02;;;;;;;42.25;27.73;;;77.70;2227.20;;;;;;5095414;28;20023;-90
2021/12/07 00:46:28;;;;;;;45.78;28.70;;;77.70;2227.20;;;;;;5095661;28;20020;-90
2021/12/07 00:48:55;;;;;;;43.13;29.58;;;77.70;2227.20;;;;;;5095701;28;20467;-90
2021/12/07 00:51:21;;;;;;;43.28;26.55;;;103.10;2227.20;;;;;;5095756;28;20354;-90
2021/12/07 00:53:47;;;;;;;42.15;30.42;;;77.70;2227.20;;;;;;5095589;28;20103;-89
2021/12/07 00:56:13;;;;;;;31.58;19.27;;;77.60;2227.20;;;;;;5095661;28;20390;-90
2021/12/07 00:58:38;;;;;;;21.48;13.43;;;77.60;2227.20;;;;;;5095414;28;20085;-91
2021/12/07 01:01:10;;;;;;;14.93;9.05;;;77.60;2227.20;;;;;;5095553;28;20023;-90
2021/12/07 01:03:38;;;;;;;9.77;5.60;;;77.50;2227.20;;;;;;5095564;28;20028;-90
2021/12/07 01:25:17;;;;;;;7.32;4.75;;;77.30;2227.20;;;;;;5096240;28;20077;-90
2021/12/07 01:27:45;;;;;;;11.63;7.32;;;77.40;2227.20;;;;;;5094968;28;20024;-89
2021/12/07 01:30:18;;;;;;;17.65;11.23;;;77.40;2227.20;;;;;;5094984;28;20403;-90
2021/12/07 01:33:16;;;;;;;14.07;8.77;;;77.40;2227.20;;;;;;5095048;28;20052;-90
2021/12/07 01:36:06;;;;;;;13.85;9.90;;;77.40;2227.20;;;;;;5096088;28;20448;-91
2021/12/07 01:59:59;;;;;;;18.40;11.00;;;77.40;2227.20;;;;;;5095602;28;20027;-90
2021/12/07 02:02:27;;;;;;;20.92;13.27;;;77.30;2227.20;;;;;;5094372;28;20027;-90
2021/12/07 02:04:55;;;;;;;23.70;13.20;;;77.40;2227.20;;;;;;5094655;28;20467;-90
2021/12/07 02:07:21;;;;;;;14.27;10.45;;;77.40;2227.20;;;;;;5094217;28;20073;-90
2021/12/07 02:09:52;;;;;;;29.65;15.80;;;77.40;2227.20;;;;;;5094281;28;20024;-91
2021/12/07 02:12:19;;;;;;;37.22;25.67;;;77.40;2227.20;;;;;;5094361;28;20177;-90
2021/12/07 02:14:44;;;;;;;29.50;17.08;;;77.40;2227.20;;;;;;5094422;28;20020;-91
2021/12/07 02:17:17;;;;;;;26.15;15.77;;;77.30;2227.20;;;;;;5093700;28;20016;-90
2021/12/07 02:19:43;;;;;;;45.85;24.83;;;77.30;2227.20;;;;;;5094065;28;20023;-91
2021/12/07 02:22:10;;;;;;;37.65;22.02;;;77.30;2227.20;;;;;;5094020;28;20024;-90
2021/12/07 02:24:36;;;;;;;45.65;23.70;;;77.30;2227.20;;;;;;5094085;28;20020;-90
2021/12/07 02:27:03;;;;;;;41.83;24.80;;;77.30;2227.20;;;;;;5094029;28;20024;-90
2021/12/07 02:29:29;;;;;;;49.70;26.75;;;77.30;2227.20;;;;;;5093900;28;20027;-91
2021/12/07 02:31:57;;;;;;;40.90;25.45;;;77.30;2227.20;;;;;;5093797;28;20024;-90
2021/12/07 02:34:24;;;;;;;31.70;18.45;;;77.40;2227.20;;;;;;5093923;28;20016;-90
2021/12/07 02:36:51;;;;;;;27.15;16.83;;;77.40;2227.20;;;;;;5093821;28;20020;-90
2021/12/07 02:39:17;;;;;;;29.95;15.65;;;77.30;2227.20;;;;;;5093983;28;20491;-92
2021/12/07 02:41:43;;;;;;;24.63;15.57;;;77.40;2227.20;;;;;;5093916;28;20024;-90
2021/12/07 02:44:10;;;;;;;22.17;14.30;;;77.40;2227.20;;;;;;5094186;28;20020;-90
2021/12/07 02:46:39;;;;;;;23.05;13.52;;;77.40;2227.20;;;;;;5094401;28;20024;-90
2021/12/07 02:49:08;;;;;;;20.15;13.02;;;77.50;2227.20;;;;;;5096425;28;20024;-89
2021/12/07 02:51:34;;;;;;;23.45;14.02;;;77.50;2227.20;;;;;;5093913;28;20020;-90
2021/12/07 02:54:00;;;;;;;16.75;10.52;;;77.50;2227.20;;;;;;5093785;28;20039;-90
2021/12/07 02:56:27;;;;;;;15.30;10.25;;;102.50;2227.20;;;;;;5093674;28;20107;-90
2021/12/07 02:59:01;;;;;;;9.50;5.80;;;77.60;2227.20;;;;;;5094014;28;20122;-90
2021/12/07 03:01:31;;;;;;;7.10;4.70;;;77.60;2227.20;;;;;;5097779;28;20016;-90
2021/12/07 03:06:35;;;;;;;9.05;5.53;;;77.70;2227.20;;;;;;5098856;28;20460;-90
2021/12/07 03:28:11;;;;;;;14.05;8.40;;;77.70;2227.20;;;;;;5098442;28;20372;-90
2021/12/07 03:30:37;;;;;;;9.50;6.55;;;77.70;2227.20;;;;;;5097177;28;20020;-91
2021/12/07 03:33:04;;;;;;;11.00;7.13;;;77.60;2227.20;;;;;;5096765;28;20078;-90
2021/12/07 03:35:30;;;;;;;10.18;6.30;;;77.50;2227.20;;;;;;5097151;28;20444;-90
2021/12/07 03:37:56;;;;;;;10.68;6.13;;;77.60;2227.20;;;;;;5096807;28;20051;-91
2021/12/07 03:40:23;;;;;;;10.60;5.18;;;77.60;2227.20;;;;;;5097033;28;20363;-90
2021/12/07 03:42:49;;;;;;;11.50;6.30;;;77.60;2227.20;;;;;;5096921;28;20023;-90
2021/12/07 03:45:15;;;;;;;8.48;3.78;;;77.50;2227.20;;;;;;5096872;28;20016;-90
2021/12/07 03:47:41;;;;;;;5.80;3.72;;;77.40;2227.20;;;;;;5096859;28;20028;-91
2021/12/07 03:50:10;;;;;;;8.95;4.75;;;77.40;2227.20;;;;;;5096913;28;20022;-91
2021/12/07 03:52:36;;;;;;;7.30;4.13;;;77.40;2227.20;;;;;;5096807;28;20107;-90
2021/12/07 03:55:04;;;;;;;9.35;4.38;;;77.30;2227.20;;;;;;5096796;28;20431;-90
2021/12/07 03:57:30;;;;;;;9.80;5.10;;;77.30;2227.20;;;;;;5096734;28;20023;-90
2021/12/07 03:59:56;;;;;;;8.80;4.07;;;77.30;2227.20;;;;;;5096545;28;20042;-90
2021/12/07 04:02:23;;;;;;;8.43;4.28;;;77.30;2201.60;;;;;;5096697;28;20089;-90
2021/12/07 04:04:58;;;;;;;8.73;4.32;;;77.30;2227.20;;;;;;5096582;28;20052;-90
2021/12/07 04:07:23;;;;;;;12.63;6.47;;;77.30;1996.80;;;;;;5096528;28;20081;-89
2021/12/07 04:09:49;;;;;;;8.60;5.60;;;77.30;2227.20;;;;;;5095916;28;20024;-88
2021/12/07 04:12:15;;;;;;;7.72;5.47;;;77.40;2227.20;;;;;;5096777;28;20110;-88
2021/12/07 04:14:41;;;;;;;12.30;7.18;;;77.30;2227.20;;;;;;5096593;28;20493;-89
2021/12/07 04:17:07;;;;;;;6.63;4.38;;;77.20;2227.20;;;;;;5096460;28;20589;-88
2021/12/07 04:19:33;;;;;;;6.43;3.83;;;77.30;2048.00;;;;;;5096463;28;20031;-89
2021/12/07 04:21:58;;;;;;;6.03;3.85;;;77.30;2227.20;;;;;;5096375;28;20024;-89
2021/12/07 04:24:27;;;;;;;8.02;5.18;;;77.20;2227.20;;;;;;5096121;28;20111;-88
2021/12/07 04:26:56;;;;;;;11.30;7.13;;;77.30;1920.00;;;;;;5095967;28;20020;-88
2021/12/07 04:29:22;;;;;;;8.38;6.25;;;77.40;2227.20;;;;;;5096040;28;20069;-88
2021/12/07 04:31:48;;;;;;;9.55;5.82;;;77.40;2227.20;;;;;;5096071;28;20028;-88
2021/12/07 04:34:14;;;;;;;16.15;8.25;;;77.40;2227.20;;;;;;5096052;28;20022;-88
2021/12/07 04:36:40;;;;;;;18.10;9.90;;;77.40;2227.20;;;;;;5095966;28;20089;-88
2021/12/07 04:39:06;;;;;;;12.13;7.20;;;102.60;2227.20;;;;;;5095631;28;20136;-89
2021/12/07 04:41:33;;;;;;;19.98;10.43;;;77.40;2227.20;;;;;;5095884;28;20028;-88
2021/12/07 04:44:00;;;;;;;14.05;8.35;;;77.40;2227.20;;;;;;5095841;28;20024;-88
2021/12/07 04:46:35;;;;;;;17.05;10.95;;;77.40;2227.20;;;;;;5095849;28;20028;-88
2021/12/07 04:59:49;;;;;;;18.08;11.13;;;77.50;2227.20;;;;;;5096635;28;20073;-88
2021/12/07 05:02:17;;;;;;;25.77;15.13;;;77.60;2227.20;;;;;;5095590;28;20027;-88
2021/12/07 05:04:43;;;;;;;18.90;11.52;;;77.60;2227.20;;;;;;5095365;28;20058;-87
2021/12/07 05:07:16;;;;;;;21.60;14.60;;;77.60;2227.20;;;;;;5095376;28;20048;-89
2021/12/07 05:10:11;;;;;;;30.85;17.15;;;77.60;2227.20;;;;;;5095417;28;20443;-89
2021/12/07 05:12:37;;;;;;;15.93;11.05;;;77.50;2227.20;;;;;;5095844;28;20486;-89
2021/12/07 05:15:19;;;;;;;13.75;8.60;;;77.50;2227.20;;;;;;5095479;28;20478;-88
2021/12/07 05:18:21;;;;;;;14.45;10.48;;;77.50;2227.20;;;;;;5095380;28;20376;-90
2021/12/07 05:24:02;;;;;;;26.20;15.77;;;77.50;2227.20;;;;;;5095528;28;20023;-90
2021/12/07 05:39:49;;;;;;;18.40;9.57;;;77.50;2227.20;;;;;;5095933;28;20035;-89
2021/12/07 05:42:15;;;;;;;21.95;12.77;;;77.40;2227.20;;;;;;5094744;28;20023;-90
2021/12/07 05:44:42;;;;;;;30.77;17.30;;;77.50;2227.20;;;;;;5094784;28;20371;-88
2021/12/07 05:47:08;;;;;;;16.77;10.63;;;77.40;2227.20;;;;;;5094878;28;20118;-87
2021/12/07 05:49:35;;;;;;;28.50;18.55;;;102.50;2227.20;;;;;;5094640;28;20026;-88
2021/12/07 05:52:01;;;;;;;15.38;10.73;;;102.40;2227.20;;;;;;5094545;28;20121;-91
2021/12/07 05:54:27;;;;;;;14.35;8.75;;;77.40;2227.20;;;;;;5094727;28;20072;-92
2021/12/07 05:56:53;;;;;;;23.55;15.55;;;77.40;2227.20;;;;;;5094469;28;20409;-90
2021/12/07 05:59:19;;;;;;;17.98;11.50;;;77.50;2227.20;;;;;;5094234;28;20024;-90
2021/12/07 06:01:45;;;;;;;19.50;13.00;;;77.40;2227.20;;;;;;5094083;28;20020;-90
2021/12/07 06:04:11;;;;;;;19.10;12.68;;;77.50;2227.20;;;;;;5094577;28;20016;-90
2021/12/07 06:06:36;;;;;;;21.48;13.63;;;77.50;2227.20;;;;;;5094208;28;20020;-90
2021/12/07 06:09:03;;;;;;;29.10;19.13;;;77.50;2227.20;;;;;;5094487;28;20020;-90
2021/12/07 06:11:29;;;;;;;28.55;17.42;;;77.50;2227.20;;;;;;5094270;28;20027;-90
2021/12/07 06:13:55;;;;;;;33.53;21.05;;;77.50;2227.20;;;;;;5094186;28;20463;-89
2021/12/07 06:16:21;;;;;;;20.55;13.48;;;77.50;2227.20;;;;;;5094301;28;20031;-91
2021/12/07 06:18:47;;;;;;;28.63;20.42;;;77.40;2227.20;;;;;;5094219;28;20063;-90
2021/12/07 06:21:13;;;;;;;17.92;12.13;;;77.40;2227.20;;;;;;5093982;28;20024;-90
2021/12/07 06:23:40;;;;;;;32.00;22.85;;;77.40;2227.20;;;;;;5094369;28;20021;-92
2021/12/07 06:26:06;;;;;;;18.60;12.02;;;77.50;2227.20;;;;;;5094443;28;20024;-89
2021/12/07 06:28:32;;;;;;;24.80;17.08;;;77.40;2227.20;;;;;;5094379;28;20447;-89
2021/12/07 06:30:58;;;;;;;21.73;15.57;;;77.50;2227.20;;;;;;5094271;28;20032;-89
2021/12/07 06:33:25;;;;;;;22.05;14.20;;;77.70;2227.20;;;;;;5093753;28;20119;-90
2021/12/07 06:35:57;;;;;;;26.77;18.52;;;77.70;2227.20;;;;;;5093980;28;20028;-88
2021/12/07 06:38:30;;;;;;;31.50;20.42;;;77.50;2227.20;;;;;;5093435;28;20083;-91
2021/12/07 06:40:58;;;;;;;38.83;24.60;;;77.50;2227.20;;;;;;5097684;28;20024;-87
2021/12/07 06:43:23;;;;;;;25.80;16.23;;;77.60;2227.20;;;;;;5100024;28;20031;-91
2021/12/07 06:45:50;;;;;;;31.70;19.75;;;77.50;2227.20;;;;;;5094028;28;20024;-92
2021/12/07 06:48:16;;;;;;;84.78;43.10;;;77.60;2227.20;;;;;;5093834;28;20066;-91
2021/12/07 06:50:42;;;;;;;49.28;29.98;;;77.50;2227.20;;;;;;5094096;28;20107;-91
2021/12/07 06:53:08;;;;;;;48.08;28.00;;;77.70;2227.20;;;;;;5093610;28;20527;-92
2021/12/07 06:55:35;;;;;;;74.53;36.58;;;77.30;2227.20;;;;;;5093972;28;20020;-92
2021/12/07 06:58:01;;;;;;;60.53;31.67;;;77.60;2227.20;;;;;;5093536;28;20040;-90
2021/12/07 07:00:28;;;;;;;49.67;29.08;;;102.50;2227.20;;;;;;5093886;28;20101;-89
2021/12/07 07:02:53;;;;;;;41.33;24.70;;;77.60;2227.20;;;;;;5093395;28;20107;-90
2021/12/07 07:05:20;;;;;;;39.03;25.55;;;77.60;2227.20;;;;;;5093837;28;20047;-88
2021/12/07 07:07:46;;;;;;;32.25;21.63;;;77.50;2227.20;;;;;;5093564;28;20035;-89
2021/12/07 07:10:15;;;;;;;38.55;23.63;;;77.60;2227.20;;;;;;5093441;28;20050;-88
2021/12/07 07:12:42;;;;;;;41.97;26.83;;;77.70;2227.20;;;;;;5093488;28;20024;-90
2021/12/07 07:15:09;;;;;;;59.97;35.03;;;77.60;2227.20;;;;;;5093388;28;20016;-88
2021/12/07 07:17:36;;;;;;;66.40;37.15;;;77.70;2227.20;;;;;;5093551;28;20177;-88
2021/12/07 07:20:04;;;;;;;65.03;38.95;;;102.80;2227.20;;;;;;5093508;28;20470;-91
2021/12/07 07:22:30;;;;;;;58.55;35.00;;;77.70;2227.20;;;;;;5093327;28;20024;-89
2021/12/07 07:24:56;;;;;;;39.05;24.52;;;77.70;2227.20;;;;;;5093543;28;20024;-89
2021/12/07 07:27:22;;;;;;;51.00;29.90;;;77.70;2227.20;;;;;;5093541;28;20043;-91
2021/12/07 07:29:48;;;;;;;49.58;32.05;;;77.70;2227.20;;;;;;5093441;28;20447;-90
2021/12/07 07:32:14;;;;;;;64.38;33.65;;;77.70;2227.20;;;;;;5093513;28;20020;-88
2021/12/07 07:34:40;;;;;;;52.65;29.17;;;77.70;2227.20;;;;;;5093444;28;20030;-88
2021/12/07 07:37:05;;;;;;;68.35;35.35;;;102.40;2227.20;;;;;;5092816;28;20036;-91
2021/12/07 07:39:32;;;;;;;76.45;41.85;;;77.70;2227.20;;;;;;5093269;28;20023;-89
2021/12/07 07:41:58;;;;;;;54.38;34.40;;;102.40;2227.20;;;;;;5093241;28;20024;-90
2021/12/07 07:44:24;;;;;;;48.70;30.05;;;102.40;2227.20;;;;;;5093154;28;20051;-90
2021/12/07 07:46:50;;;;;;;33.95;22.63;;;102.40;2227.20;;;;;;5096803;28;20043;-89
2021/12/07 07:49:16;;;;;;;29.13;18.88;;;102.40;2227.20;;;;;;5096916;28;20035;-88
2021/12/07 07:51:42;;;;;;;37.53;22.58;;;102.40;2227.20;;;;;;5096886;28;20023;-88
2021/12/07 07:54:08;;;;;;;29.33;19.77;;;102.40;2227.20;;;;;;5096858;28;20032;-89
2021/12/07 07:56:36;;;;;;;39.65;23.98;;;102.50;2227.20;;;;;;5096987;28;20031;-89
2021/12/07 07:59:03;;;;;;;33.72;22.75;;;102.60;2227.20;;;;;;5096540;28;20028;-88
2021/12/07 08:01:31;;;;;;;136.77;58.47;;;102.60;2227.20;;;;;;5096471;28;20024;-89
2021/12/07 08:04:01;;;;;;;154.18;74.03;;;102.50;2227.20;;;;;;5096634;28;20043;-89
2021/12/07 08:06:28;;;;;;;57.95;35.85;;;102.50;2227.20;;;;;;5096771;28;20048;-89
2021/12/07 08:08:54;;;;;;;37.63;27.00;;;102.50;2227.20;;;;;;5096582;28;20024;-89
2021/12/07 08:11:19;;;;;;;46.25;31.73;;;102.50;2227.20;;;;;;5096395;28;20057;-90
2021/12/07 08:13:45;;;;;;;43.95;31.10;;;102.60;2227.20;;;;;;5096338;28;20051;-89
2021/12/07 08:16:15;;;;;;;36.60;24.45;;;102.60;2227.20;;;;;;5096425;28;20020;-89
2021/12/07 08:18:49;;;;;;;40.33;28.17;;;102.60;2227.20;;;;;;5096294;28;20111;-91
2021/12/07 08:21:15;;;;;;;41.17;26.77;;;102.50;2227.20;;;;;;5096435;28;20027;-89
2021/12/07 08:23:42;;;;;;;34.13;23.58;;;102.60;2227.20;;;;;;5096363;28;20016;-93
2021/12/07 08:26:09;;;;;;;36.58;23.30;;;102.50;2227.20;;;;;;5096270;28;20024;-91
2021/12/07 08:28:35;;;;;;;37.45;24.10;;;102.50;2227.20;;;;;;5096572;28;20084;-91
2021/12/07 08:31:02;;;;;;;44.72;28.38;;;102.50;2227.20;;;;;;5096337;28;20118;-88
2021/12/07 08:33:29;;;;;;;51.05;31.73;;;102.60;2227.20;;;;;;5096303;28;20024;-91
2021/12/07 08:35:55;;;;;;;39.67;26.38;;;102.60;2227.20;;;;;;5096308;28;20050;-91
2021/12/07 08:38:21;;;;;;;46.67;29.35;;;102.60;2227.20;;;;;;5095518;28;20460;-91
2021/12/07 08:40:53;;;;;;;63.47;34.72;;;102.70;2227.20;;;;;;5095922;28;20020;-91
2021/12/07 08:43:23;;;;;;;58.22;33.00;;;102.80;2227.20;;;;;;5095882;28;20024;-91
2021/12/07 08:45:50;;;;;;;63.78;36.28;;;102.80;2227.20;;;;;;5095734;28;20035;-89
2021/12/07 08:48:17;;;;;;;28.02;18.23;;;102.80;2227.20;;;;;;5095740;28;20056;-92
2021/12/07 08:50:44;;;;;;;40.55;26.98;;;102.70;2227.20;;;;;;5095640;28;20061;-91
2021/12/07 08:53:13;;;;;;;28.58;19.58;;;102.70;2227.20;;;;;;5095689;28;20020;-88
2021/12/07 09:01:15;;;;;;;30.90;22.92;;;102.80;2227.20;;;;;;5096689;28;20035;-89
2021/12/07 09:03:41;;;;;;;32.08;21.40;;;102.80;2227.20;;;;;;5095640;28;20344;-88
2021/12/07 09:06:07;;;;;;;35.72;25.65;;;102.80;2227.20;;;;;;5095288;28;20031;-88
2021/12/07 09:08:33;;;;;;;23.30;17.05;;;102.80;2227.20;;;;;;5095299;28;20031;-90
2021/12/07 09:10:59;;;;;;;22.38;16.55;;;102.80;2227.20;;;;;;5095147;28;20020;-90
2021/12/07 09:13:27;;;;;;;47.53;30.13;;;102.70;2227.20;;;;;;5095174;28;20077;-91
2021/12/07 09:15:54;;;;;;;34.92;23.48;;;102.80;2227.20;;;;;;5095131;28;20043;-91
2021/12/07 09:18:19;;;;;;;37.80;23.55;;;102.80;2227.20;;;;;;5096257;28;20024;-91
2021/12/07 09:20:46;;;;;;;34.78;23.60;;;102.80;2227.20;;;;;;5095165;28;20027;-91
2021/12/07 09:23:11;;;;;;;27.83;16.50;;;102.80;2227.20;;;;;;5095170;28;20079;-90
2021/12/07 09:25:38;;;;;;;45.80;32.60;;;102.70;2227.20;;;;;;5095082;28;20059;-89
2021/12/07 09:28:04;;;;;;;24.40;18.15;;;102.70;2227.20;;;;;;5094926;28;20028;-91
2021/12/07 09:30:30;;;;;;;19.33;12.80;;;102.80;2227.20;;;;;;5095189;28;20020;-90
2021/12/07 09:32:56;;;;;;;23.13;15.23;;;102.70;2227.20;;;;;;5095017;28;20063;-88
2021/12/07 09:35:23;;;;;;;25.92;16.92;;;102.70;2227.20;;;;;;5094907;28;20024;-89
2021/12/07 09:37:51;;;;;;;19.15;14.55;;;102.70;2227.20;;;;;;5094538;28;20080;-88
2021/12/07 09:40:20;;;;;;;19.27;12.75;;;102.70;2227.20;;;;;;5094835;28;20046;-88
2021/12/07 09:42:47;;;;;;;16.42;12.38;;;102.70;2227.20;;;;;;5094442;28;20414;-88
2021/12/07 09:45:14;;;;;;;25.88;16.55;;;102.70;2227.20;;;;;;5094870;28;20364;-90
2021/12/07 09:47:40;;;;;;;18.23;10.82;;;102.70;2227.20;;;;;;5094756;28;20020;-90
2021/12/07 09:50:12;;;;;;;23.85;17.45;;;102.60;2227.20;;;;;;5094587;28;20024;-90
2021/12/07 09:52:44;;;;;;;27.52;19.50;;;102.70;2227.20;;;;;;5094436;28;20031;-89
2021/12/07 09:55:11;;;;;;;27.33;18.10;;;102.80;2227.20;;;;;;5094469;28;20024;-86
2021/12/07 09:58:10;;;;;;;25.40;18.90;;;102.80;2227.20;;;;;;5094264;28;20059;-89
2021/12/07 10:00:37;;;;;;;21.95;15.68;;;102.70;2227.20;;;;;;5095162;28;20032;-92
2021/12/07 10:03:03;;;;;;;27.77;19.75;;;102.70;2227.20;;;;;;5094264;28;20455;-89
2021/12/07 10:05:31;;;;;;;25.60;18.75;;;102.60;2227.20;;;;;;5094007;28;20026;-89
2021/12/07 10:07:58;;;;;;;28.83;19.88;;;102.60;2227.20;;;;;;5095012;28;20040;-88
2021/12/07 10:10:32;;;;;;;44.92;28.67;;;102.50;2227.20;;;;;;5095185;28;20020;-89
2021/12/07 10:12:58;;;;;;;22.50;16.90;;;102.60;2227.20;;;;;;5094063;28;20024;-88
2021/12/07 10:15:25;;;;;;;23.83;17.63;;;102.50;2227.20;;;;;;5093783;28;20058;-86
2021/12/07 10:18:16;;;;;;;28.05;19.35;;;102.50;2227.20;;;;;;5094646;28;20020;-87
2021/12/07 10:20:49;;;;;;;18.63;13.52;;;102.60;2227.20;;;;;;5093964;28;20431;-89
2021/12/07 10:23:17;;;;;;;22.92;14.90;;;102.60;2227.20;;;;;;5093986;28;20112;-89
2021/12/07 10:25:46;;;;;;;18.60;11.63;;;102.50;2227.20;;;;;;5093783;28;20363;-89
2021/12/07 10:28:35;;;;;;;33.13;19.85;;;102.50;2227.20;;;;;;5093745;28;20085;-90
2021/12/07 10:31:16;;;;;;;38.47;22.30;;;102.60;2227.20;;;;;;5093489;28;20023;-85
2021/12/07 10:33:54;;;;;;;41.53;22.13;;;102.50;2227.20;;;;;;5093597;28;20020;-88
2021/12/07 10:36:31;;;;;;;39.25;23.90;;;102.50;2227.20;;;;;;5094232;28;20463;-89
2021/12/07 10:38:59;;;;;;;43.15;24.13;;;102.50;2227.20;;;;;;5093561;28;20071;-91
2021/12/07 10:41:26;;;;;;;33.63;18.95;;;102.50;2227.20;;;;;;5093847;28;20027;-89
2021/12/07 10:43:58;;;;;;;38.90;23.67;;;77.20;2227.20;;;;;;5093921;28;20114;-89
2021/12/07 10:46:41;;;;;;;33.83;20.42;;;102.40;2227.20;;;;;;5093706;28;20016;-90
2021/12/07 10:49:21;;;;;;;;;;;102.50;2227.20;;;;;;5093953;28;20032;-88
2021/12/07 10:52:14;;;;;;;23.50;15.88;;;102.50;2227.20;;;;;;5093370;28;19900;-89
2021/12/07 10:54:48;;;;;;;33.30;20.45;;;102.40;2227.20;;;;;;5093780;28;20026;-89
2021/12/07 10:57:18;;;;;;;28.33;17.33;;;102.40;2227.20;;;;;;5093460;28;20161;-89
2021/12/07 11:00:13;;;;;;;39.83;22.85;;;102.40;2227.20;;;;;;5094330;28;20017;-88
2021/12/07 11:02:41;;;;;;;30.95;19.25;;;102.40;2227.20;;;;;;5089780;28;20034;-88
2021/12/07 11:05:17;;;;;;;38.10;22.15;;;102.40;2227.20;;;;;;5093070;28;20043;-88
2021/12/07 11:07:43;;;;;;;48.45;34.22;;;102.40;2227.20;;;;;;5093255;28;20153;-87
2021/12/07 11:10:27;;;;;;;41.42;27.52;;;102.50;2227.20;;;;;;5093355;28;20447;-88
2021/12/07 11:15:29;;;;;;;29.23;18.88;;;102.50;2227.20;;;;;;5094486;28;20157;-85
2021/12/07 11:18:03;;;;;;;52.00;28.73;;;102.50;2227.20;;;;;;5092889;28;20032;-85
2021/12/07 11:20:30;;;;;;;38.17;22.27;;;102.50;2227.20;;;;;;5094292;28;20379;-86
2021/12/07 11:23:04;;;;;;;40.47;29.15;;;102.40;2227.20;;;;;;5096923;28;20031;-87
2021/12/07 11:31:34;;;;;;;22.65;14.82;;;102.50;2227.20;;;;;;5098080;28;20047;-88
2021/12/07 11:34:18;;;;;;;29.48;20.58;;;102.40;2227.20;;;;;;5097114;28;20016;-89
2021/12/07 11:36:48;;;;;;;26.00;17.60;;;77.70;2227.20;;;;;;5096858;28;20056;-87
2021/12/07 11:39:51;;;;;;;20.30;14.50;;;77.70;2227.20;;;;;;5096925;28;20024;-86
2021/12/07 11:42:26;;;;;;;16.88;12.95;;;77.70;2227.20;;;;;;5096473;28;20115;-86
2021/12/07 11:45:02;;;;;;;20.70;14.82;;;77.60;2227.20;;;;;;5097069;28;20054;-85
2021/12/07 11:47:31;;;;;;;20.35;13.88;;;77.60;2227.20;;;;;;5096683;28;20039;-87
2021/12/07 11:50:25;;;;;;;15.15;12.57;;;77.60;2227.20;;;;;;5096392;28;20020;-88
2021/12/07 11:52:55;;;;;;;33.88;21.95;;;77.60;2227.20;;;;;;5096150;28;20016;-86
2021/12/07 11:55:25;;;;;;;52.80;31.23;;;77.70;2227.20;;;;;;5095926;28;20024;-86
2021/12/07 11:57:52;;;;;;;28.95;20.88;;;77.60;2227.20;;;;;;5096281;28;20032;-82
2021/12/07 12:00:22;;;;;;;33.22;22.25;;;77.60;2227.20;;;;;;5095794;28;20046;-82
2021/12/07 12:02:48;;;;;;;25.17;16.55;;;77.50;2227.20;;;;;;5095931;28;20032;-83
2021/12/07 12:05:15;;;;;;;25.23;17.67;;;77.40;2227.20;;;;;;5096021;28;20066;-83
2021/12/07 12:07:44;;;;;;;21.83;15.20;;;77.40;2227.20;;;;;;5095870;28;20084;-83
2021/12/07 12:10:12;;;;;;;47.80;29.27;;;77.40;2227.20;;;;;;5095657;28;20028;-82
2021/12/07 12:13:07;;;;;;;38.80;28.33;;;77.40;2227.20;;;;;;5095603;28;20461;-82
2021/12/07 12:15:50;;;;;;;24.90;18.30;;;77.30;2227.20;;;;;;5096029;28;20077;-85
2021/12/07 12:18:45;;;;;;;24.23;16.35;;;77.30;2227.20;;;;;;5095707;28;20127;-80
2021/12/07 12:21:15;;;;;;;24.70;16.13;;;77.30;2227.20;;;;;;5095848;28;20020;-88
2021/12/07 12:24:06;;;;;;;25.35;18.38;;;77.20;2227.20;;;;;;5096126;28;20019;-88
2021/12/07 12:26:34;;;;;;;23.20;16.45;;;77.30;2227.20;;;;;;5095747;28;20020;-87
2021/12/07 12:29:19;;;;;;;31.50;21.95;;;77.30;2227.20;;;;;;5096150;28;20024;-88
2021/12/07 12:31:55;;;;;;;52.13;32.53;;;77.20;2227.20;;;;;;5095468;28;20024;-86
2021/12/07 12:34:25;;;;;;;24.40;16.95;;;77.20;2227.20;;;;;;5095594;28;20024;-89
2021/12/07 12:37:25;;;;;;;93.88;43.92;;;77.10;2227.20;;;;;;5095300;28;20024;-90
2021/12/07 12:39:56;;;;;;;38.67;22.90;;;77.10;2227.20;;;;;;5072661;28;20489;-88
2021/12/07 12:42:28;;;;;;;39.15;22.65;;;77.10;2227.20;;;;;;5109282;28;20028;-89
2021/12/07 12:45:17;;;;;;;35.13;19.15;;;77.10;2227.20;;;;;;5100501;28;20020;-89
2021/12/07 12:47:43;;;;;;;77.93;38.83;;;77.10;2227.20;;;;;;5094810;28;20022;-88
2021/12/07 12:50:17;;;;;;;66.28;35.92;;;77.10;2227.20;;;;;;5095567;28;20024;-88
2021/12/07 12:52:48;;;;;;;44.20;28.42;;;77.00;2227.20;;;;;;5094855;28;20023;-86
2021/12/07 12:55:34;;;;;;;117.93;67.45;;;77.00;2227.20;;;;;;5095224;28;20111;-85
2021/12/07 12:58:04;;;;;;;38.63;25.98;;;77.10;2227.20;;;;;;5095047;28;20027;-85
2021/12/07 13:01:00;;;;;;;33.70;20.80;;;77.00;2227.20;;;;;;5095258;28;20070;-86
2021/12/07 13:03:44;;;;;;;37.38;22.63;;;76.90;2227.20;;;;;;5095055;28;20031;-88
2021/12/07 13:06:15;;;;;;;25.45;18.30;;;77.00;2227.20;;;;;;5094919;28;20023;-91
2021/12/07 13:08:59;;;;;;;27.98;18.83;;;77.00;2227.20;;;;;;5094726;28;20024;-87
2021/12/07 13:11:37;;;;;;;;;;;76.90;2227.20;;;;;;5104340;28;20020;-87
2021/12/07 13:14:27;;;;;;;29.10;19.00;;;77.00;2227.20;;;;;;5100480;28;19997;-87
2021/12/07 13:17:16;;;;;;;58.45;35.92;;;77.00;2227.20;;;;;;5109002;28;20057;-85
2021/12/07 13:20:21;;;;;;;39.35;24.35;;;77.10;2227.20;;;;;;5114340;28;20024;-80
2021/12/07 13:22:50;;;;;;;36.85;23.75;;;77.00;2227.20;;;;;;5115778;28;20024;-82
2021/12/07 13:25:36;;;;;;;28.85;20.67;;;77.10;2227.20;;;;;;5116061;28;20028;-79
2021/12/07 13:28:13;;;;;;;22.38;16.77;;;77.10;2227.20;;;;;;5114875;28;20463;-79
2021/12/07 13:30:48;;;;;;;17.33;12.38;;;76.90;2227.20;;;;;;5115050;28;20067;-86
2021/12/07 13:33:17;;;;;;;32.78;19.90;;;76.90;2227.20;;;;;;5115120;28;20027;-88
2021/12/07 13:35:43;;;;;;;33.50;21.02;;;77.00;2227.20;;;;;;5115551;28;20070;-89
2021/12/07 13:38:24;;;;;;;29.92;23.15;;;77.20;2227.20;;;;;;5114875;28;20159;-90
2021/12/07 13:40:53;;;;;;;31.27;25.50;;;77.00;2227.20;;;;;;5115047;28;20020;-87
2021/12/07 13:43:53;;;;;;;28.63;22.73;;;77.00;2227.20;;;;;;5114290;28;20020;-87
2021/12/07 13:46:26;;;;;;;26.98;18.13;;;77.00;2227.20;;;;;;5114734;28;20024;-84
2021/12/07 13:49:03;;;;;;;27.05;20.00;;;77.00;2227.20;;;;;;5113994;28;20111;-80
2021/12/07 13:51:29;;;;;;;20.90;13.48;;;76.90;2227.20;;;;;;5114132;28;20026;-86
2021/12/07 13:53:55;;;;;;;22.98;17.15;;;77.00;2227.20;;;;;;5131120;27;20114;-85
2021/12/07 13:56:21;;;;;;;20.92;17.70;;;77.00;2227.20;;;;;;5131403;27;20473;-83
2021/12/07 13:59:08;;;;;;;20.58;15.77;;;77.00;2227.20;;;;;;5114246;28;20366;-84
2021/12/07 14:01:37;;;;;;;23.85;17.95;;;77.00;2227.20;;;;;;5114001;28;20020;-84
2021/12/07 14:04:06;;;;;;;27.50;17.83;;;77.50;2227.20;;;;;;5115770;28;20023;-86
2021/12/07 14:06:32;;;;;;;31.40;22.98;;;77.00;2227.20;;;;;;5113903;28;20414;-85
2021/12/07 14:09:07;;;;;;;44.80;30.02;;;77.00;2227.20;;;;;;5112736;28;20129;-86
2021/12/07 14:11:33;;;;;;;33.35;22.00;;;77.10;2227.20;;;;;;5117830;28;20012;-83